Time;durP1;ratioP1;P1;durP2;ratioP2;P2;SDS_P1;SDS_P2;PMS_P1;PMS_P2;Temp;Humidity;BMP_temperature;BMP_pressure;BME280_temperature;BME280_humidity;BME280_pressure;Samples;Min_cycle;Max_cycle;Signal;HPM_P1;HPM_P2
2022/12/15 00:39:11;;;;;;;29.17;11.43;;;-5.70;99.90;;;;;;5113265;28;20093;-77
2022/12/15 00:41:36;;;;;;;28.60;11.48;;;-5.70;99.90;;;;;;5113743;28;20114;-78
2022/12/15 00:44:02;;;;;;;32.50;12.32;;;-5.70;99.90;;;;;;5096214;28;20425;-76
2022/12/15 01:22:06;;;;;;;30.65;11.57;;;-5.60;99.90;;;;;;5111953;28;20039;-76
2022/12/15 01:24:32;;;;;;;30.38;12.20;;;-5.70;99.90;;;;;;5095536;27;20075;-77
2022/12/15 01:26:58;;;;;;;38.28;12.30;;;-5.60;99.90;;;;;;5115017;28;20475;-77
2022/12/15 01:29:24;;;;;;;32.30;13.02;;;-5.60;99.90;;;;;;5115391;28;20043;-76
2022/12/15 01:31:50;;;;;;;32.47;12.75;;;-5.60;99.90;;;;;;5133676;28;20152;-76
2022/12/15 01:34:18;;;;;;;30.70;11.88;;;-5.60;99.90;;;;;;5098160;28;20450;-76
2022/12/15 01:36:45;;;;;;;32.42;12.40;;;-5.60;99.90;;;;;;5133504;28;20047;-76
2022/12/15 01:39:11;;;;;;;32.10;11.73;;;-5.70;99.90;;;;;;5098469;28;20043;-75
2022/12/15 01:41:37;;;;;;;29.05;11.63;;;-5.70;99.90;;;;;;5134032;28;20042;-75
2022/12/15 01:44:20;;;;;;;31.23;11.43;;;-5.70;99.90;;;;;;5114940;28;20055;-75
2022/12/15 01:46:49;;;;;;;31.83;12.23;;;-5.60;99.90;;;;;;5115970;28;20043;-76
2022/12/15 01:49:20;;;;;;;36.53;12.95;;;-5.60;99.90;;;;;;5115313;28;20058;-76
2022/12/15 01:51:49;;;;;;;30.33;11.95;;;-5.60;99.90;;;;;;5133396;28;20039;-76
2022/12/15 01:54:17;;;;;;;33.50;12.80;;;-5.60;99.90;;;;;;5114770;28;20119;-76
2022/12/15 01:56:55;;;;;;;28.52;12.23;;;-5.60;99.90;;;;;;5133289;28;20451;-77
2022/12/15 01:59:39;;;;;;;35.53;14.68;;;-5.60;99.90;;;;;;5115092;28;20067;-76
2022/12/15 02:02:05;;;;;;;31.10;11.15;;;-5.50;99.90;;;;;;5097866;28;20031;-77
2022/12/15 02:04:32;;;;;;;32.83;11.52;;;-5.70;99.90;;;;;;5133188;28;20126;-76
2022/12/15 02:06:58;;;;;;;28.55;10.73;;;-5.70;99.90;;;;;;5115005;28;20097;-75
2022/12/15 02:09:25;;;;;;;31.15;11.77;;;-5.70;99.90;;;;;;5097812;28;20043;-75
2022/12/15 02:12:06;;;;;;;31.13;11.65;;;-5.70;99.90;;;;;;5114948;28;20050;-75
2022/12/15 02:14:44;;;;;;;31.48;11.45;;;-5.80;99.90;;;;;;5133158;28;20050;-77
2022/12/15 02:17:19;;;;;;;28.65;11.45;;;-5.70;99.90;;;;;;5133538;28;20059;-75
2022/12/15 02:19:58;;;;;;;28.48;12.40;;;-5.80;99.90;;;;;;5115214;28;20051;-75
2022/12/15 02:23:01;;;;;;;28.33;11.30;;;-5.70;99.90;;;;;;5114810;28;20039;-76
2022/12/15 02:25:55;;;;;;;31.52;12.20;;;-5.70;99.90;;;;;;5114593;28;20039;-76
2022/12/15 02:28:42;;;;;;;26.83;10.60;;;-5.70;99.90;;;;;;5114637;28;20471;-76
2022/12/15 02:34:13;;;;;;;30.00;11.25;;;-5.70;99.90;;;;;;5115317;28;20312;-77
2022/12/15 02:36:43;;;;;;;31.60;10.70;;;-5.70;99.90;;;;;;5117711;27;20031;-75
2022/12/15 02:39:13;;;;;;;31.48;11.93;;;-5.60;99.90;;;;;;5136900;27;20126;-75
2022/12/15 02:41:41;;;;;;;25.02;11.10;;;-5.60;99.90;;;;;;5117852;27;20038;-75
2022/12/15 02:44:22;;;;;;;35.65;11.43;;;-5.60;99.90;;;;;;5137027;27;20055;-77
2022/12/15 02:47:15;;;;;;;28.08;10.40;;;-5.60;99.90;;;;;;5118829;27;20042;-77
2022/12/15 02:50:11;;;;;;;26.48;10.48;;;-5.60;99.90;;;;;;5136849;27;20130;-76
2022/12/15 02:53:13;;;;;;;28.50;10.93;;;-5.50;99.90;;;;;;5118187;27;20072;-77
2022/12/15 02:56:04;;;;;;;26.45;11.15;;;-5.50;99.90;;;;;;5117945;27;20039;-76
2022/12/15 02:59:01;;;;;;;25.63;11.63;;;-5.50;99.90;;;;;;5117561;27;20085;-75
2022/12/15 03:01:33;;;;;;;;;;;-5.40;99.90;;;;;;5117669;27;20154;-76
2022/12/15 03:04:02;;;;;;;23.88;10.35;;;-5.40;99.90;;;;;;5136128;27;19919;-75
2022/12/15 03:06:27;;;;;;;27.63;9.73;;;-5.40;99.90;;;;;;5100975;27;20077;-76
2022/12/15 03:08:53;;;;;;;28.10;11.18;;;-5.40;99.90;;;;;;5117980;27;20050;-77
2022/12/15 03:11:19;;;;;;;32.25;12.02;;;-5.40;99.90;;;;;;5117886;27;20559;-75
2022/12/15 03:13:45;;;;;;;27.45;11.00;;;-5.40;99.90;;;;;;5117614;27;20069;-76
2022/12/15 03:16:12;;;;;;;23.33;7.50;;;-5.50;99.90;;;;;;5136410;27;20043;-77
2022/12/15 03:18:37;;;;;;;30.05;11.65;;;-5.50;99.90;;;;;;5117618;27;20103;-76
2022/12/15 03:21:03;;;;;;;25.40;10.95;;;-5.40;99.90;;;;;;5083961;27;20050;-76
2022/12/15 03:23:29;;;;;;;28.10;11.60;;;-5.40;99.90;;;;;;5135745;27;20039;-76
2022/12/15 03:25:55;;;;;;;27.27;11.18;;;-5.40;99.90;;;;;;5135988;27;20403;-76
2022/12/15 03:28:20;;;;;;;27.40;10.68;;;-5.40;99.90;;;;;;5117520;27;20047;-77
2022/12/15 03:30:47;;;;;;;27.30;9.57;;;-5.40;99.90;;;;;;5100362;27;20043;-77
2022/12/15 03:33:13;;;;;;;28.30;10.10;;;-5.50;99.90;;;;;;5135700;27;20046;-78
2022/12/15 03:35:39;;;;;;;31.67;11.68;;;-5.40;99.90;;;;;;5117507;27;20047;-79
2022/12/15 03:38:05;;;;;;;29.30;11.40;;;-5.40;99.90;;;;;;5135160;27;20095;-76
2022/12/15 03:40:30;;;;;;;24.48;10.38;;;-5.40;99.90;;;;;;5117085;27;20540;-76
2022/12/15 03:42:57;;;;;;;25.15;10.13;;;-5.50;99.90;;;;;;5100069;27;20074;-76
2022/12/15 03:45:25;;;;;;;30.77;12.45;;;-5.50;99.90;;;;;;5135504;27;20072;-77
2022/12/15 03:47:51;;;;;;;27.55;10.27;;;-5.40;99.90;;;;;;5099999;27;20047;-77
2022/12/15 03:50:19;;;;;;;27.02;10.25;;;-5.40;99.90;;;;;;5117701;27;20047;-75
2022/12/15 03:52:59;;;;;;;27.30;10.70;;;-5.50;99.90;;;;;;5135457;27;20074;-79
2022/12/15 03:55:27;;;;;;;27.15;11.13;;;-5.40;99.90;;;;;;5084952;27;20039;-77
2022/12/15 03:57:54;;;;;;;23.65;9.85;;;-5.40;99.90;;;;;;5100032;27;20042;-76
2022/12/15 04:00:21;;;;;;;27.00;11.43;;;-5.40;99.90;;;;;;5135265;27;20035;-76
2022/12/15 04:02:47;;;;;;;26.80;10.52;;;-5.50;99.90;;;;;;5135707;27;20159;-75
2022/12/15 04:05:28;;;;;;;22.65;10.80;;;-5.50;99.90;;;;;;5135520;27;20078;-76
2022/12/15 04:07:55;;;;;;;23.80;9.95;;;-5.50;99.90;;;;;;5116838;27;20455;-76
2022/12/15 04:10:23;;;;;;;24.45;9.77;;;-5.40;99.90;;;;;;5116961;27;20039;-77
2022/12/15 04:12:48;;;;;;;;;;;-5.40;99.90;;;;;;5100508;27;20050;-76
2022/12/15 04:15:14;;;;;;;22.67;9.98;;;-5.40;99.90;;;;;;5099899;27;19919;-78
2022/12/15 04:17:41;;;;;;;26.02;10.43;;;-5.40;99.90;;;;;;5116896;27;20424;-76
2022/12/15 04:20:10;;;;;;;29.35;10.82;;;-5.30;99.90;;;;;;5116489;27;20441;-75
2022/12/15 04:22:41;;;;;;;25.50;10.77;;;-5.30;99.90;;;;;;5134264;27;20544;-75
2022/12/15 05:33:58;;;;;;;27.10;9.85;;;-5.50;99.90;;;;;;5133588;27;20057;-77
2022/12/15 05:36:24;;;;;;;25.50;10.02;;;-5.50;99.90;;;;;;5097961;28;20130;-75
2022/12/15 05:38:51;;;;;;;26.00;9.23;;;-5.50;99.90;;;;;;5114098;28;20043;-77
2022/12/15 05:41:18;;;;;;;27.42;9.82;;;-5.50;99.90;;;;;;5132763;28;20376;-76
2022/12/15 05:43:44;;;;;;;25.73;10.38;;;-5.50;99.90;;;;;;5081274;28;20424;-77
2022/12/15 05:46:10;;;;;;;23.73;10.32;;;-5.50;99.90;;;;;;5098261;28;20047;-78
2022/12/15 05:48:35;;;;;;;27.40;10.48;;;-5.60;99.90;;;;;;5133090;28;20043;-76
2022/12/15 05:51:07;;;;;;;28.58;9.90;;;-5.50;99.90;;;;;;5115493;28;20059;-77
2022/12/15 05:53:33;;;;;;;23.17;9.00;;;-5.60;99.90;;;;;;5097829;28;20057;-76
2022/12/15 05:56:08;;;;;;;26.02;9.88;;;-5.60;99.90;;;;;;5116039;28;20367;-77
2022/12/15 05:58:34;;;;;;;29.38;10.20;;;-5.50;99.90;;;;;;5133683;28;20047;-78
2022/12/15 06:01:04;;;;;;;24.00;10.38;;;-5.50;99.90;;;;;;5133300;28;20088;-76
2022/12/15 06:03:30;;;;;;;23.58;9.57;;;-5.60;99.90;;;;;;5114911;28;20502;-76
2022/12/15 06:05:57;;;;;;;28.13;9.73;;;-5.60;99.90;;;;;;5133315;28;20047;-77
2022/12/15 06:08:22;;;;;;;25.35;10.35;;;-5.60;99.90;;;;;;5114860;28;20050;-76
2022/12/15 06:10:53;;;;;;;24.52;9.07;;;-5.60;99.90;;;;;;5116741;27;20445;-77
2022/12/15 06:13:20;;;;;;;26.42;10.27;;;-5.50;99.90;;;;;;5102222;27;20439;-78
2022/12/15 06:16:03;;;;;;;28.17;10.55;;;-5.50;99.90;;;;;;5102134;27;20479;-76
2022/12/15 06:18:34;;;;;;;23.45;8.77;;;-5.50;99.90;;;;;;5137178;27;20103;-76
2022/12/15 06:21:03;;;;;;;23.70;10.48;;;-5.40;99.90;;;;;;5137131;27;20047;-78
2022/12/15 06:23:31;;;;;;;28.15;10.15;;;-5.40;99.90;;;;;;5136830;27;20543;-77
2022/12/15 06:25:58;;;;;;;23.35;9.85;;;-5.40;99.90;;;;;;5118791;27;20505;-77
2022/12/15 06:28:25;;;;;;;23.52;8.82;;;-5.40;99.90;;;;;;5102266;27;20055;-78
2022/12/15 06:30:55;;;;;;;25.75;9.60;;;-5.40;99.90;;;;;;5102541;27;20058;-78
2022/12/15 06:33:21;;;;;;;22.02;8.98;;;-5.40;99.90;;;;;;5137723;27;20059;-78
2022/12/15 06:35:48;;;;;;;23.20;9.68;;;-5.40;99.90;;;;;;5136977;27;20092;-78
2022/12/15 06:38:14;;;;;;;22.48;8.80;;;-5.40;99.90;;;;;;5118384;27;20039;-79
2022/12/15 06:40:40;;;;;;;26.45;9.23;;;-5.40;99.90;;;;;;5136369;27;20054;-80
2022/12/15 06:43:07;;;;;;;22.67;9.20;;;-5.40;99.90;;;;;;5118386;27;20039;-78
2022/12/15 06:45:33;;;;;;;23.02;9.40;;;-5.40;99.90;;;;;;5136808;27;20059;-77
2022/12/15 06:47:59;;;;;;;22.17;9.60;;;-5.40;99.90;;;;;;5118195;27;20066;-78
2022/12/15 06:50:25;;;;;;;26.52;9.80;;;-5.50;99.90;;;;;;5100760;27;20130;-78
2022/12/15 06:52:51;;;;;;;25.92;9.77;;;-5.40;99.90;;;;;;5117391;27;20047;-78
2022/12/15 06:55:17;;;;;;;30.75;9.85;;;-5.40;99.90;;;;;;5101589;27;20054;-78
2022/12/15 06:57:43;;;;;;;20.75;9.55;;;-5.40;99.90;;;;;;5118658;27;20133;-80
2022/12/15 07:00:09;;;;;;;22.02;8.45;;;-5.40;99.90;;;;;;5136592;27;20039;-78
2022/12/15 07:02:35;;;;;;;29.23;8.98;;;-5.50;99.90;;;;;;5117904;27;20043;-77
2022/12/15 07:05:01;;;;;;;18.67;8.85;;;-5.40;99.90;;;;;;5136881;27;20047;-78
2022/12/15 07:07:27;;;;;;;24.17;9.77;;;-5.40;99.90;;;;;;5101670;27;20184;-78
2022/12/15 07:09:53;;;;;;;23.13;9.70;;;-5.40;99.90;;;;;;5117169;27;20049;-78
2022/12/15 07:12:18;;;;;;;23.48;9.05;;;-5.40;99.90;;;;;;5099897;27;20141;-78
2022/12/15 07:14:44;;;;;;;24.48;9.60;;;-5.40;99.90;;;;;;5117164;27;20039;-78
2022/12/15 07:17:10;;;;;;;22.33;9.25;;;-5.40;99.90;;;;;;5116868;27;20043;-79
2022/12/15 07:19:36;;;;;;;24.13;10.23;;;-5.40;99.90;;;;;;5100662;27;20043;-80
2022/12/15 07:22:02;;;;;;;23.23;9.05;;;-5.40;99.90;;;;;;5117506;27;20043;-78
2022/12/15 07:24:28;;;;;;;23.95;10.45;;;-5.40;99.90;;;;;;5117323;27;20058;-80
2022/12/15 07:26:53;;;;;;;24.95;10.30;;;-5.20;99.90;;;;;;5136411;27;20058;-79
2022/12/15 07:29:19;;;;;;;26.60;10.65;;;-5.30;99.90;;;;;;5117585;27;20047;-77
2022/12/15 07:31:45;;;;;;;30.05;11.38;;;-5.40;99.90;;;;;;5100729;27;20035;-77
2022/12/15 07:34:11;;;;;;;40.25;13.15;;;-5.40;99.90;;;;;;5135879;27;20088;-77
2022/12/15 07:36:37;;;;;;;42.08;15.43;;;-5.20;99.90;;;;;;5100209;27;20075;-76
2022/12/15 07:39:04;;;;;;;36.78;13.32;;;-5.30;99.90;;;;;;5135143;27;20050;-76
2022/12/15 07:41:30;;;;;;;32.33;12.48;;;-5.30;99.90;;;;;;5117232;27;20043;-78
2022/12/15 07:43:57;;;;;;;29.10;12.00;;;-5.30;99.90;;;;;;5100495;27;20061;-77
2022/12/15 07:46:24;;;;;;;30.77;11.52;;;-5.20;99.90;;;;;;5117898;27;20061;-78
2022/12/15 07:48:52;;;;;;;27.17;10.77;;;-5.10;99.90;;;;;;5117906;27;20125;-77
2022/12/15 07:51:20;;;;;;;;;;;-5.00;99.90;;;;;;5135863;27;20112;-79
2022/12/15 07:53:48;;;;;;;27.52;11.88;;;-4.80;99.90;;;;;;5100821;27;19919;-78
2022/12/15 07:56:14;;;;;;;24.95;11.32;;;-4.70;99.90;;;;;;5117751;27;20051;-78
2022/12/15 07:58:40;;;;;;;31.45;11.57;;;-4.60;99.90;;;;;;5116811;27;20103;-77
2022/12/15 08:01:09;;;;;;;24.43;11.10;;;-4.50;99.90;;;;;;5134975;27;20039;-77
2022/12/15 08:03:35;;;;;;;29.83;11.45;;;-4.50;99.90;;;;;;5134869;27;20126;-78
2022/12/15 08:06:05;;;;;;;24.13;10.00;;;-4.40;99.90;;;;;;5099867;27;20093;-78
2022/12/15 08:08:32;;;;;;;26.23;11.20;;;-4.50;99.90;;;;;;5117241;27;20046;-77
2022/12/15 08:10:57;;;;;;;30.13;10.60;;;-4.40;99.90;;;;;;5134762;27;20444;-77
2022/12/15 08:13:24;;;;;;;25.15;11.32;;;-4.30;99.90;;;;;;5116572;27;20047;-76
2022/12/15 08:15:53;;;;;;;26.83;11.10;;;-4.30;99.90;;;;;;5134931;27;20384;-77
2022/12/15 08:18:19;;;;;;;28.60;11.95;;;-4.30;99.90;;;;;;5134782;27;20424;-78
2022/12/15 08:20:45;;;;;;;30.02;12.13;;;-4.30;99.90;;;;;;5115969;27;20051;-82
2022/12/15 08:23:11;;;;;;;27.17;11.00;;;-4.20;99.90;;;;;;5115746;27;20046;-79
2022/12/15 08:25:37;;;;;;;26.30;10.85;;;-4.30;99.90;;;;;;5134048;27;20405;-77
2022/12/15 08:28:03;;;;;;;23.85;10.73;;;-4.20;99.90;;;;;;5099097;27;20062;-76
2022/12/15 08:30:30;;;;;;;25.13;10.48;;;-4.20;99.90;;;;;;5134240;27;20083;-77
2022/12/15 08:32:55;;;;;;;25.80;11.23;;;-4.10;99.90;;;;;;5115385;27;20074;-79
2022/12/15 08:35:21;;;;;;;25.90;10.73;;;-4.10;99.90;;;;;;5115571;27;20158;-78
2022/12/15 08:37:47;;;;;;;26.75;11.18;;;-4.00;99.90;;;;;;5099329;27;20430;-80
2022/12/15 08:40:13;;;;;;;21.50;10.35;;;-4.00;99.90;;;;;;5115563;27;20051;-77
2022/12/15 08:42:38;;;;;;;26.50;11.57;;;-3.80;99.90;;;;;;5115997;27;20126;-77
2022/12/15 08:45:05;;;;;;;29.27;11.73;;;-3.90;99.90;;;;;;5115667;27;20043;-77
2022/12/15 08:47:30;;;;;;;30.98;13.05;;;-3.80;99.90;;;;;;5115490;27;20463;-77
2022/12/15 08:49:56;;;;;;;27.17;11.30;;;-3.70;99.90;;;;;;5098392;27;20084;-77
2022/12/15 08:52:22;;;;;;;26.60;12.30;;;-3.70;99.90;;;;;;5116279;27;20108;-77
2022/12/15 08:54:48;;;;;;;29.02;11.93;;;-3.60;99.90;;;;;;5133835;27;20043;-77
2022/12/15 08:57:14;;;;;;;29.15;12.02;;;-3.60;99.90;;;;;;5133797;27;20121;-77
2022/12/15 08:59:40;;;;;;;24.20;10.85;;;-3.50;99.90;;;;;;5115617;28;20043;-77
2022/12/15 09:02:08;;;;;;;26.08;11.88;;;-3.50;99.90;;;;;;5133563;27;20062;-76
2022/12/15 09:04:34;;;;;;;26.45;12.02;;;-3.50;99.90;;;;;;5133357;27;20466;-78
2022/12/15 09:07:00;;;;;;;25.27;12.02;;;-3.30;99.90;;;;;;5082201;27;20123;-78
2022/12/15 09:09:26;;;;;;;31.97;12.67;;;-3.30;99.90;;;;;;5115948;27;20042;-76
2022/12/15 09:11:52;;;;;;;30.48;11.82;;;-3.20;99.90;;;;;;5115120;27;20644;-74
2022/12/15 09:14:17;;;;;;;31.05;12.38;;;-2.20;99.90;;;;;;5114844;27;20378;-76
2022/12/15 09:16:43;;;;;;;27.13;11.70;;;-3.30;99.90;;;;;;5133521;27;20043;-76
2022/12/15 09:19:10;;;;;;;25.33;12.15;;;-2.80;99.90;;;;;;5133550;27;20075;-76
2022/12/15 09:21:35;;;;;;;24.13;11.88;;;-3.20;99.90;;;;;;5133453;27;20042;-76
2022/12/15 09:24:02;;;;;;;33.25;13.18;;;-3.30;99.90;;;;;;5133438;27;20362;-75
2022/12/15 09:26:31;;;;;;;29.38;12.38;;;-2.70;99.90;;;;;;5097948;28;20050;-75
2022/12/15 09:28:56;;;;;;;28.42;12.35;;;-2.80;99.90;;;;;;5133549;27;20047;-75
2022/12/15 09:31:35;;;;;;;26.85;11.82;;;-3.10;99.90;;;;;;5115278;27;20106;-75
2022/12/15 09:34:01;;;;;;;30.27;13.93;;;-2.90;99.90;;;;;;5133474;27;20474;-74
2022/12/15 09:36:29;;;;;;;34.85;14.00;;;-2.80;99.90;;;;;;5115393;27;20394;-76
2022/12/15 09:38:55;;;;;;;31.92;13.20;;;-2.80;99.90;;;;;;5097539;28;20079;-76
2022/12/15 09:41:33;;;;;;;28.20;13.45;;;-2.50;99.90;;;;;;5133202;28;20082;-76
2022/12/15 09:44:14;;;;;;;30.27;13.90;;;-2.60;99.90;;;;;;5098244;28;20118;-76
2022/12/15 09:47:10;;;;;;;29.92;13.05;;;-2.60;99.90;;;;;;5100046;27;20158;-76
2022/12/15 09:49:56;;;;;;;31.10;13.90;;;-2.50;99.90;;;;;;5119606;27;20133;-75
2022/12/15 09:52:27;;;;;;;30.02;13.02;;;-2.20;99.90;;;;;;5118990;27;20110;-75
2022/12/15 09:54:54;;;;;;;36.80;14.18;;;-2.20;99.90;;;;;;5137567;27;20043;-79
2022/12/15 09:57:33;;;;;;;36.20;14.13;;;-2.00;99.90;;;;;;5137888;27;20051;-76
2022/12/15 10:00:28;;;;;;;33.80;13.02;;;-1.70;99.90;;;;;;5102079;27;20134;-76
2022/12/15 10:03:08;;;;;;;33.22;14.25;;;-1.50;99.90;;;;;;5137019;27;20047;-74
2022/12/15 10:06:06;;;;;;;20.20;8.55;;;-1.30;99.90;;;;;;5137319;27;20039;-74
2022/12/15 10:08:53;;;;;;;32.10;13.95;;;-1.20;99.90;;;;;;5115030;27;20058;-74
2022/12/15 10:11:22;;;;;;;31.58;13.40;;;-1.10;99.90;;;;;;5119237;27;20509;-74
2022/12/15 10:13:55;;;;;;;30.58;13.52;;;-1.00;99.90;;;;;;5119102;27;20066;-73
2022/12/15 10:16:54;;;;;;;28.65;12.43;;;-0.90;99.90;;;;;;5137558;27;20142;-74
2022/12/15 10:19:39;;;;;;;30.60;11.82;;;-0.80;99.90;;;;;;5136679;27;20039;-74
2022/12/15 10:22:09;;;;;;;29.33;12.85;;;-0.80;99.90;;;;;;5136710;27;20126;-75
2022/12/15 10:24:35;;;;;;;27.42;11.82;;;-0.80;99.90;;;;;;5102820;27;20054;-75
2022/12/15 10:27:05;;;;;;;27.33;11.85;;;-0.90;99.90;;;;;;5136500;27;20066;-75
2022/12/15 10:29:42;;;;;;;28.27;12.25;;;-0.90;99.90;;;;;;5101182;27;20548;-74
2022/12/15 10:32:19;;;;;;;27.67;12.10;;;-1.10;99.90;;;;;;5118620;27;20441;-74
2022/12/15 10:34:45;;;;;;;27.50;12.50;;;-1.10;99.90;;;;;;5118612;27;20058;-75
2022/12/15 10:37:16;;;;;;;26.77;12.15;;;-1.10;99.90;;;;;;5118424;27;20474;-73
2022/12/15 10:39:44;;;;;;;28.98;11.82;;;-1.20;99.90;;;;;;5101441;27;20082;-74
2022/12/15 10:42:25;;;;;;;27.17;11.77;;;-1.10;99.90;;;;;;5136469;27;20054;-74
2022/12/15 10:44:56;;;;;;;25.80;11.82;;;-1.10;99.90;;;;;;5118432;27;20137;-74
2022/12/15 10:47:30;;;;;;;31.38;11.95;;;-1.00;99.90;;;;;;5100938;27;20134;-73
2022/12/15 10:50:20;;;;;;;34.05;12.50;;;-0.80;99.90;;;;;;5100942;27;20047;-73
2022/12/15 10:52:46;;;;;;;30.05;13.10;;;-0.70;99.90;;;;;;5136932;27;20050;-75
2022/12/15 10:55:40;;;;;;;28.80;12.38;;;-0.70;99.90;;;;;;5136112;27;20523;-73
2022/12/15 10:58:22;;;;;;;28.23;11.98;;;-0.60;99.90;;;;;;5135428;27;20491;-73
2022/12/15 11:01:06;;;;;;;30.20;12.70;;;-0.50;99.90;;;;;;5117551;27;20414;-75
2022/12/15 11:03:36;;;;;;;38.00;13.60;;;-0.30;99.90;;;;;;5135688;27;20635;-74
2022/12/15 11:06:20;;;;;;;30.65;13.60;;;-0.10;99.90;;;;;;5118293;27;20055;-79
2022/12/15 11:08:47;;;;;;;31.42;12.95;;;0.00;99.90;;;;;;5100919;27;20078;-74
2022/12/15 11:14:24;;;;;;;28.52;13.52;;;0.60;99.90;;;;;;5117900;27;20081;-75
2022/12/15 11:16:59;;;;;;;35.42;14.15;;;0.30;99.90;;;;;;5136344;27;20047;-74
2022/12/15 11:19:37;;;;;;;29.40;12.93;;;0.30;99.90;;;;;;5117642;27;20050;-75
2022/12/15 11:22:14;;;;;;;30.58;13.30;;;0.30;99.90;;;;;;5135948;27;20053;-74
2022/12/15 11:24:52;;;;;;;31.35;13.68;;;0.30;99.90;;;;;;5101072;27;20158;-73
2022/12/15 11:27:32;;;;;;;30.17;13.18;;;0.40;99.90;;;;;;5117172;27;20486;-74
2022/12/15 11:30:23;;;;;;;31.77;13.18;;;0.70;99.90;;;;;;5135731;27;20471;-73
2022/12/15 11:32:56;;;;;;;31.83;13.02;;;0.30;99.90;;;;;;5116775;27;20104;-73
2022/12/15 11:35:44;;;;;;;31.88;12.95;;;0.30;99.90;;;;;;5117936;27;20069;-75
2022/12/15 11:38:25;;;;;;;36.95;14.30;;;0.30;99.90;;;;;;5135903;27;20047;-73
2022/12/15 11:40:53;;;;;;;35.55;13.88;;;0.20;99.90;;;;;;5135311;27;20066;-72
2022/12/15 11:43:47;;;;;;;37.72;15.40;;;0.30;99.90;;;;;;5135404;27;20125;-73
2022/12/15 11:46:13;;;;;;;28.83;14.20;;;0.30;99.90;;;;;;5099805;27;20058;-74
2022/12/15 11:49:10;;;;;;;32.40;15.48;;;0.20;99.90;;;;;;5117444;27;20063;-73
2022/12/15 11:51:55;;;;;;;31.40;13.48;;;0.20;99.90;;;;;;5117750;27;20060;-74
2022/12/15 11:54:45;;;;;;;36.53;13.88;;;0.20;99.90;;;;;;5117135;27;20467;-74
2022/12/15 11:57:56;;;;;;;34.40;15.20;;;0.20;99.90;;;;;;5135585;27;20045;-73
2022/12/15 12:00:22;;;;;;;28.95;14.60;;;0.20;99.90;;;;;;5135273;27;20055;-75
2022/12/15 12:02:50;;;;;;;34.25;13.48;;;0.20;99.90;;;;;;5099747;27;20073;-73
2022/12/15 12:05:37;;;;;;;34.92;13.73;;;0.20;99.90;;;;;;5117340;27;20043;-72
2022/12/15 12:08:12;;;;;;;31.80;14.25;;;0.20;99.90;;;;;;5098882;28;20082;-74
2022/12/15 12:10:55;;;;;;;32.67;15.02;;;0.20;99.90;;;;;;5135376;27;20054;-72
2022/12/15 12:13:43;;;;;;;33.92;15.18;;;0.20;99.90;;;;;;5082992;27;20090;-73
2022/12/15 12:16:31;;;;;;;34.53;14.40;;;0.30;99.90;;;;;;5116811;27;20059;-73
2022/12/15 12:19:05;;;;;;;36.78;16.13;;;0.20;99.90;;;;;;5135275;27;20197;-73
2022/12/15 12:21:43;;;;;;;37.97;15.82;;;0.30;99.90;;;;;;5116054;27;20039;-74
2022/12/15 12:24:22;;;;;;;34.75;14.65;;;0.30;99.90;;;;;;5117080;27;20047;-74
2022/12/15 12:26:57;;;;;;;35.13;16.27;;;0.40;99.90;;;;;;5096453;28;20075;-74
2022/12/15 12:29:38;;;;;;;32.40;14.02;;;0.70;99.90;;;;;;5113554;28;20120;-74
2022/12/15 12:32:14;;;;;;;36.40;16.70;;;0.70;99.90;;;;;;5095900;28;20537;-74
2022/12/15 12:35:07;;;;;;;36.03;15.57;;;0.80;99.90;;;;;;5114249;28;20051;-77
2022/12/15 12:37:48;;;;;;;41.47;16.95;;;0.90;99.90;;;;;;5112349;28;20138;-74
2022/12/15 12:40:43;;;;;;;35.13;17.02;;;0.90;99.90;;;;;;5114511;28;20044;-74
2022/12/15 12:43:19;;;;;;;36.00;15.45;;;1.00;99.90;;;;;;5112460;28;20044;-73
2022/12/15 12:45:58;;;;;;;32.55;15.57;;;1.10;99.90;;;;;;5112306;28;20044;-74
2022/12/15 12:48:39;;;;;;;41.85;16.13;;;1.10;99.90;;;;;;5113554;28;20134;-75
2022/12/15 12:51:23;;;;;;;36.08;15.65;;;1.10;99.90;;;;;;5112455;28;20052;-74
2022/12/15 12:53:50;;;;;;;39.55;17.05;;;1.20;99.90;;;;;;5112644;28;20036;-76
2022/12/15 12:56:38;;;;;;;37.92;16.40;;;1.30;99.90;;;;;;5112255;28;20070;-76
2022/12/15 12:59:27;;;;;;;43.67;17.02;;;1.30;99.90;;;;;;5095894;28;20059;-76
2022/12/15 13:01:54;;;;;;;36.35;16.48;;;1.30;99.90;;;;;;5099840;28;20371;-74
2022/12/15 13:04:29;;;;;;;37.47;18.13;;;1.50;99.90;;;;;;5079298;28;20130;-76
2022/12/15 13:06:57;;;;;;;37.13;17.05;;;1.30;99.90;;;;;;5095291;28;20047;-74
2022/12/15 13:09:36;;;;;;;33.53;16.83;;;1.20;99.90;;;;;;5113283;28;20513;-75
2022/12/15 13:12:02;;;;;;;36.60;17.13;;;1.20;99.90;;;;;;5098035;28;20054;-74
2022/12/15 13:14:43;;;;;;;44.55;17.48;;;1.10;99.90;;;;;;5113349;28;20399;-74
2022/12/15 13:17:18;;;;;;;40.20;17.75;;;1.10;99.90;;;;;;5095132;28;20051;-74
2022/12/15 13:19:55;;;;;;;42.28;18.73;;;1.10;99.90;;;;;;5111875;28;20051;-73
2022/12/15 13:22:30;;;;;;;44.15;18.00;;;1.10;99.90;;;;;;5111858;28;20052;-74
2022/12/15 13:24:56;;;;;;;41.13;16.23;;;1.10;99.90;;;;;;5112555;28;20134;-75
2022/12/15 13:27:23;;;;;;;40.00;17.45;;;1.10;99.90;;;;;;5094479;28;20538;-74
2022/12/15 13:30:08;;;;;;;41.08;17.27;;;1.10;99.90;;;;;;5112721;28;20375;-75
2022/12/15 13:32:35;;;;;;;38.00;17.00;;;1.10;99.90;;;;;;5113640;28;20050;-75
2022/12/15 13:35:16;;;;;;;36.75;16.75;;;1.10;99.90;;;;;;5112181;28;20101;-75
2022/12/15 13:37:47;;;;;;;41.85;18.13;;;1.00;99.90;;;;;;5111982;28;20062;-74
2022/12/15 13:40:36;;;;;;;42.17;16.98;;;1.00;99.90;;;;;;5112785;28;20043;-73
2022/12/15 13:43:04;;;;;;;39.22;15.73;;;1.00;99.90;;;;;;5101228;28;20135;-75
2022/12/15 13:45:36;;;;;;;41.97;17.35;;;1.00;99.90;;;;;;5111790;28;20089;-74
2022/12/15 13:48:31;;;;;;;38.15;17.42;;;1.00;99.90;;;;;;5112975;28;20364;-75
2022/12/15 13:51:01;;;;;;;39.35;17.23;;;0.80;99.90;;;;;;5110968;28;20058;-75
2022/12/15 13:53:36;;;;;;;39.40;17.23;;;0.80;99.90;;;;;;5112906;28;20069;-75
2022/12/15 13:56:17;;;;;;;43.97;17.35;;;0.80;99.90;;;;;;5094485;28;20052;-74
2022/12/15 13:58:49;;;;;;;40.85;17.05;;;0.70;99.90;;;;;;5112722;28;20051;-74
2022/12/15 14:01:27;;;;;;;45.50;18.02;;;0.70;99.90;;;;;;5095773;28;20044;-74
2022/12/15 14:04:04;;;;;;;;;;;0.60;99.90;;;;;;5094904;28;20526;-77
2022/12/15 14:06:38;;;;;;;;;;;0.60;99.90;;;;;;5111655;28;19919;-76
2022/12/15 14:09:10;;;;;;;40.25;17.10;;;0.80;99.90;;;;;;5111328;28;20382;-74
2022/12/15 14:11:36;;;;;;;43.28;18.13;;;0.70;99.90;;;;;;5112373;28;20051;-75
2022/12/15 14:14:02;;;;;;;42.33;18.10;;;0.70;99.90;;;;;;5111613;28;20134;-75
2022/12/15 14:16:32;;;;;;;48.22;19.60;;;0.60;99.90;;;;;;5094898;28;20048;-75
2022/12/15 14:19:17;;;;;;;44.45;18.30;;;0.60;99.90;;;;;;5112104;28;20079;-75
2022/12/15 14:21:52;;;;;;;42.45;17.77;;;0.60;99.90;;;;;;5111532;28;20050;-75
2022/12/15 14:24:28;;;;;;;43.63;18.35;;;0.60;99.90;;;;;;5113477;28;20048;-77
2022/12/15 14:26:54;;;;;;;41.85;17.63;;;0.50;99.90;;;;;;5111358;28;20058;-77
2022/12/15 14:29:21;;;;;;;48.60;17.65;;;0.50;99.90;;;;;;5112988;28;20120;-75
2022/12/15 14:31:56;;;;;;;44.70;19.77;;;0.50;99.90;;;;;;5112243;28;20056;-74
2022/12/15 14:34:27;;;;;;;43.78;19.25;;;0.40;99.90;;;;;;5116900;28;20112;-75
2022/12/15 14:36:56;;;;;;;49.42;19.70;;;0.40;99.90;;;;;;5116229;28;20044;-75
2022/12/15 14:39:33;;;;;;;50.05;19.77;;;0.40;99.90;;;;;;5115249;28;20491;-78
2022/12/15 14:42:00;;;;;;;51.40;20.08;;;0.50;99.90;;;;;;5115950;28;20043;-75
2022/12/15 14:44:38;;;;;;;50.35;22.08;;;0.50;99.90;;;;;;5115531;28;20503;-77
2022/12/15 14:47:19;;;;;;;53.53;22.45;;;0.50;99.90;;;;;;5098667;28;20054;-77
2022/12/15 14:49:46;;;;;;;50.47;21.73;;;0.50;99.90;;;;;;5115509;28;20035;-75
2022/12/15 14:52:24;;;;;;;50.22;21.85;;;0.50;99.90;;;;;;5116183;28;20052;-76
2022/12/15 14:54:54;;;;;;;50.72;21.48;;;0.40;99.90;;;;;;5097625;28;20043;-74
2022/12/15 14:57:21;;;;;;;55.95;23.10;;;0.50;99.90;;;;;;5116244;28;20051;-77
2022/12/15 14:59:48;;;;;;;48.70;22.27;;;0.30;99.90;;;;;;5114951;28;20109;-75
2022/12/15 15:02:21;;;;;;;50.00;21.13;;;0.20;99.90;;;;;;5114727;28;20046;-75
2022/12/15 15:05:26;;;;;;;47.35;21.27;;;0.20;99.90;;;;;;5116584;28;20083;-77
2022/12/15 15:07:55;;;;;;;50.13;21.02;;;0.10;99.90;;;;;;5093401;28;20434;-74
2022/12/15 15:10:28;;;;;;;53.65;21.35;;;0.10;99.90;;;;;;5081525;28;20087;-75
2022/12/15 15:12:57;;;;;;;51.47;22.00;;;0.00;99.90;;;;;;5115719;28;20040;-74
2022/12/15 15:15:25;;;;;;;43.30;20.75;;;0.00;99.90;;;;;;5097824;28;20094;-75
2022/12/15 15:17:53;;;;;;;55.28;23.00;;;-0.10;99.90;;;;;;5114456;28;20040;-74
2022/12/15 15:20:30;;;;;;;55.08;20.92;;;-0.10;99.90;;;;;;5114737;28;20094;-79
2022/12/15 15:23:16;;;;;;;53.30;22.15;;;-0.20;99.90;;;;;;5097494;28;20039;-76
2022/12/15 15:26:14;;;;;;;50.10;22.00;;;-0.30;99.90;;;;;;5098156;28;20051;-77
2022/12/15 15:28:42;;;;;;;51.90;22.83;;;-0.40;99.90;;;;;;5081796;28;20059;-75